createdAt,value
2017-04-13T04:00:39.735Z,93.08
2017-04-13T04:01:05.233Z,92.89
2017-04-13T04:01:30.713Z,92.7
2017-04-13T04:01:56.182Z,93.37
2017-04-13T04:02:21.642Z,93.75
2017-04-13T04:02:47.127Z,92.99
2017-04-13T04:03:12.610Z,92.89
2017-04-13T04:03:38.056Z,93.18
2017-04-13T04:04:03.523Z,93.27
2017-04-13T04:04:29.004Z,93.65
2017-04-13T04:04:54.464Z,93.46
2017-04-13T04:05:19.947Z,93.46
2017-04-13T04:05:45.404Z,93.65
2017-04-13T04:06:10.879Z,93.18
2017-04-13T04:06:36.347Z,93.18
2017-04-13T04:07:01.814Z,93.27
2017-04-13T04:07:27.271Z,93.27
2017-04-13T04:07:52.763Z,93.55
2017-04-13T04:08:18.242Z,93.18
2017-04-13T04:08:43.719Z,93.46
2017-04-13T04:09:09.188Z,93.46
2017-04-13T04:09:34.678Z,93.08
2017-04-13T04:10:00.130Z,92.99
2017-04-13T04:10:25.597Z,93.27
2017-04-13T04:10:51.071Z,93.27
2017-04-13T04:11:16.532Z,93.08
2017-04-13T04:11:42.000Z,93.65
2017-04-13T04:12:07.452Z,93.37
2017-04-13T04:12:32.949Z,93.55
2017-04-13T04:12:58.433Z,93.18
2017-04-13T04:13:23.884Z,93.27
2017-04-13T04:13:49.369Z,93.65
2017-04-13T04:14:14.832Z,93.46
2017-04-13T04:14:40.312Z,93.55
2017-04-13T04:15:05.791Z,93.65
2017-04-13T04:15:31.275Z,93.27
2017-04-13T04:15:56.760Z,93.65
2017-04-13T04:16:22.233Z,93.65
2017-04-13T04:16:47.721Z,93.37
2017-04-13T04:17:13.169Z,93.46
2017-04-13T04:17:38.633Z,93.18
2017-04-13T04:18:04.109Z,93.18
2017-04-13T04:18:29.594Z,93.46
2017-04-13T04:18:55.065Z,93.46
2017-04-13T04:19:20.536Z,93.37
2017-04-13T04:19:46.007Z,93.37
2017-04-13T04:20:11.462Z,93.27
2017-04-13T04:20:36.915Z,93.27
2017-04-13T04:21:02.409Z,93.65
2017-04-13T04:21:27.861Z,93.65
2017-04-13T04:21:53.326Z,93.46
2017-04-13T04:22:18.778Z,93.65
2017-04-13T04:22:44.226Z,93.55
2017-04-13T04:23:09.703Z,93.55
2017-04-13T04:23:35.196Z,93.55
2017-04-13T04:24:00.685Z,93.37
2017-04-13T04:24:26.160Z,93.37
2017-04-13T04:24:51.684Z,93.84
2017-04-13T04:25:17.153Z,93.65
2017-04-13T04:25:42.614Z,93.18
2017-04-13T04:26:08.072Z,93.55
2017-04-13T04:26:33.537Z,93.37
2017-04-13T04:26:59.037Z,93.37
2017-04-13T04:27:24.473Z,93.37
2017-04-13T04:27:49.947Z,93.46
2017-04-13T04:28:15.403Z,93.08
2017-04-13T04:28:40.877Z,93.18
2017-04-13T04:29:06.363Z,93.46
2017-04-13T04:29:31.823Z,93.55
2017-04-13T04:29:57.288Z,93.08
2017-04-13T04:30:22.759Z,93.37
2017-04-13T04:30:48.236Z,93.18
2017-04-13T04:31:13.710Z,93.18
2017-04-13T04:31:39.153Z,93.08
2017-04-13T04:32:04.616Z,93.65
2017-04-13T04:32:30.081Z,93.55
2017-04-13T04:32:55.544Z,93.84
2017-04-13T04:33:21.022Z,93.46
2017-04-13T04:33:46.498Z,93.65
2017-04-13T04:34:11.977Z,93.84
2017-04-13T04:34:37.437Z,93.37
2017-04-13T04:35:02.936Z,93.75
2017-04-13T04:35:28.394Z,93.27
2017-04-13T04:35:53.879Z,93.37
2017-04-13T04:36:19.378Z,93.37
2017-04-13T04:36:44.837Z,93.18
2017-04-13T04:37:10.316Z,93.37
2017-04-13T04:37:35.783Z,93.65
2017-04-13T04:38:01.225Z,93.55
2017-04-13T04:38:26.696Z,94.32
2017-04-13T04:38:52.172Z,93.46
2017-04-13T04:39:17.626Z,93.84
2017-04-13T04:39:43.099Z,93.37
2017-04-13T04:40:08.569Z,93.55
2017-04-13T04:40:34.033Z,93.65
2017-04-13T04:40:59.540Z,94.13
2017-04-13T04:41:25.000Z,94.42
2017-04-13T04:41:50.499Z,94.51
2017-04-13T04:42:15.977Z,93.75
2017-04-13T04:42:41.450Z,93.65
2017-04-13T04:43:06.923Z,93.75
2017-04-13T04:43:32.411Z,93.37
2017-04-13T04:43:57.865Z,93.65
2017-04-13T04:44:23.333Z,93.75
2017-04-13T04:44:48.807Z,93.75
2017-04-13T04:45:14.284Z,93.84
2017-04-13T04:45:39.763Z,93.84
2017-04-13T04:46:05.238Z,93.75
2017-04-13T04:46:30.712Z,93.65
2017-04-13T04:46:56.225Z,93.75
2017-04-13T04:47:21.705Z,93.65
2017-04-13T04:47:47.160Z,93.84
2017-04-13T04:48:12.613Z,94.03
2017-04-13T04:48:38.092Z,93.75
2017-04-13T04:49:03.567Z,93.75
2017-04-13T04:49:29.043Z,93.37
2017-04-13T04:49:54.495Z,93.84
2017-04-13T04:50:19.964Z,93.75
2017-04-13T04:50:45.418Z,93.08
2017-04-13T04:51:10.877Z,92.99
2017-04-13T04:51:36.354Z,93.65
2017-04-13T04:52:01.823Z,93.55
2017-04-13T04:52:27.305Z,93.75
2017-04-13T04:52:52.783Z,93.46
2017-04-13T04:53:18.242Z,93.46
2017-04-13T04:53:43.745Z,93.46
2017-04-13T04:54:09.197Z,93.46
2017-04-13T04:54:34.633Z,93.18
2017-04-13T04:55:00.156Z,93.37
2017-04-13T04:55:25.623Z,93.18
2017-04-13T04:55:51.083Z,92.99
2017-04-13T04:56:16.555Z,93.46
2017-04-13T04:56:42.035Z,93.46
2017-04-13T04:57:07.483Z,93.27
2017-04-13T04:57:32.974Z,93.37
2017-04-13T04:57:58.538Z,93.55
2017-04-13T04:58:23.969Z,93.55
2017-04-13T04:58:49.417Z,93.37
2017-04-13T04:59:14.917Z,93.27
2017-04-13T04:59:40.391Z,93.46
2017-04-13T05:00:05.860Z,93.37
2017-04-13T05:00:31.325Z,93.37
2017-04-13T05:00:56.818Z,93.27
2017-04-13T05:01:22.290Z,93.65
2017-04-13T05:01:47.774Z,93.27
2017-04-13T05:02:13.279Z,93.18
2017-04-13T05:02:38.716Z,93.37
2017-04-13T05:03:04.206Z,93.46
2017-04-13T05:03:29.698Z,93.27
2017-04-13T05:03:55.167Z,92.99
2017-04-13T05:04:20.628Z,93.08
2017-04-13T05:04:46.111Z,92.89
2017-04-13T05:05:11.587Z,92.7
2017-04-13T05:05:37.022Z,92.51
2017-04-13T05:06:02.501Z,92.61
2017-04-13T05:06:27.976Z,92.7
2017-04-13T05:06:53.469Z,92.7
2017-04-13T05:07:18.907Z,93.08
2017-04-13T05:07:44.378Z,92.51
2017-04-13T05:08:09.857Z,92.51
2017-04-13T05:08:35.319Z,92.41
2017-04-13T05:09:00.774Z,92.32
2017-04-13T05:09:26.244Z,92.41
2017-04-13T05:09:51.741Z,92.61
2017-04-13T05:10:17.201Z,92.32
2017-04-13T05:10:42.697Z,92.61
2017-04-13T05:11:08.172Z,92.32
2017-04-13T05:11:33.644Z,92.41
2017-04-13T05:11:59.088Z,92.7
2017-04-13T05:12:24.611Z,92.41
2017-04-13T05:12:50.065Z,92.61
2017-04-13T05:13:15.550Z,92.51
2017-04-13T05:13:41.019Z,92.61
2017-04-13T05:14:06.470Z,92.61
2017-04-13T05:14:31.951Z,92.51
2017-04-13T05:14:57.438Z,92.61
2017-04-13T05:15:22.905Z,92.61
2017-04-13T05:15:48.358Z,92.7
2017-04-13T05:16:13.830Z,92.8
2017-04-13T05:16:39.290Z,92.61
2017-04-13T05:17:04.760Z,92.8
2017-04-13T05:17:30.234Z,92.7
2017-04-13T05:17:55.709Z,92.03
2017-04-13T05:18:21.221Z,92.22
2017-04-13T05:18:46.692Z,92.32
2017-04-13T05:19:12.164Z,92.32
2017-04-13T05:19:37.668Z,92.61
2017-04-13T05:20:03.179Z,92.51
2017-04-13T05:20:28.668Z,92.13
2017-04-13T05:20:54.171Z,92.03
2017-04-13T05:21:19.608Z,92.22
2017-04-13T05:21:45.083Z,92.7
2017-04-13T05:22:10.563Z,92.51
2017-04-13T05:22:36.042Z,92.32
2017-04-13T05:23:01.503Z,92.03
2017-04-13T05:23:26.970Z,92.8
2017-04-13T05:23:52.442Z,92.51
2017-04-13T05:24:17.935Z,92.22
2017-04-13T05:24:43.379Z,92.22
2017-04-13T05:25:08.864Z,91.85
2017-04-13T05:25:34.333Z,91.75
2017-04-13T05:25:59.781Z,92.03
2017-04-13T05:26:25.276Z,92.03
2017-04-13T05:26:50.757Z,91.85
2017-04-13T05:27:16.229Z,92.13
2017-04-13T05:27:41.721Z,92.32
2017-04-13T05:28:07.217Z,92.32
2017-04-13T05:28:32.688Z,92.41
2017-04-13T05:28:58.136Z,92.51
2017-04-13T05:29:23.613Z,92.32
2017-04-13T05:29:49.103Z,92.51
2017-04-13T05:30:14.550Z,91.94
2017-04-13T05:30:40.001Z,91.75
2017-04-13T05:31:05.491Z,91.94
2017-04-13T05:31:30.981Z,91.94
2017-04-13T05:31:56.449Z,91.75
2017-04-13T05:32:21.923Z,92.03
2017-04-13T05:32:47.378Z,92.13
2017-04-13T05:33:12.841Z,92.32
2017-04-13T05:33:38.330Z,92.7
2017-04-13T05:34:03.807Z,92.61
2017-04-13T05:34:29.275Z,92.61
2017-04-13T05:34:54.723Z,92.32
2017-04-13T05:35:20.184Z,92.7
2017-04-13T05:35:45.652Z,92.51
2017-04-13T05:36:11.123Z,92.13
2017-04-13T05:36:36.608Z,92.03
2017-04-13T05:37:02.113Z,91.75
2017-04-13T05:37:27.529Z,91.75
2017-04-13T05:37:52.986Z,92.03
2017-04-13T05:38:18.452Z,92.03
2017-04-13T05:38:43.902Z,92.13
2017-04-13T05:39:09.382Z,92.03
2017-04-13T05:39:34.841Z,92.03
2017-04-13T05:40:00.309Z,92.03
2017-04-13T05:40:25.773Z,91.75
2017-04-13T05:40:51.262Z,92.03
2017-04-13T05:41:16.736Z,91.94
2017-04-13T05:41:42.218Z,92.13
2017-04-13T05:42:07.737Z,92.03
2017-04-13T05:42:33.190Z,91.75
2017-04-13T05:42:58.641Z,91.56
2017-04-13T05:43:24.107Z,92.03
2017-04-13T05:43:49.578Z,91.75
2017-04-13T05:44:15.055Z,92.13
2017-04-13T05:44:40.517Z,91.85
2017-04-13T05:45:05.998Z,91.56
2017-04-13T05:45:31.459Z,91.94
2017-04-13T05:45:56.918Z,92.03
2017-04-13T05:46:22.385Z,91.94
2017-04-13T05:46:47.873Z,92.03
2017-04-13T05:47:13.366Z,91.94
2017-04-13T05:47:38.853Z,91.85
2017-04-13T05:48:04.324Z,92.13
2017-04-13T05:48:29.834Z,92.61
2017-04-13T05:48:55.280Z,91.75
2017-04-13T05:49:20.751Z,92.03
2017-04-13T05:49:46.213Z,92.03
2017-04-13T05:50:11.697Z,92.03
2017-04-13T05:50:37.158Z,92.51
2017-04-13T05:51:02.667Z,92.13
2017-04-13T05:51:28.116Z,91.94
2017-04-13T05:51:53.582Z,92.03
2017-04-13T05:52:19.047Z,91.28
2017-04-13T05:52:44.511Z,91.56
2017-04-13T05:53:09.986Z,92.03
2017-04-13T05:53:35.441Z,91.56
2017-04-13T05:54:00.897Z,91.18
2017-04-13T05:54:26.381Z,91.18
2017-04-13T05:54:51.835Z,91.08
2017-04-13T05:55:17.323Z,91.28
2017-04-13T05:55:42.770Z,90.94
2017-04-13T05:56:08.227Z,91.08
2017-04-13T05:56:33.693Z,91.28
2017-04-13T05:56:59.163Z,91.56
2017-04-13T05:57:24.612Z,91.08
2017-04-13T05:57:50.119Z,91.61
2017-04-13T05:58:15.592Z,91.18
2017-04-13T05:58:41.025Z,91.56
2017-04-13T05:59:06.496Z,92.13
2017-04-13T05:59:31.975Z,91.94
2017-04-13T05:59:57.449Z,91.28
2017-04-13T06:00:22.937Z,91.08
2017-04-13T06:00:48.427Z,91.37
2017-04-13T06:01:13.894Z,90.89
2017-04-13T06:01:39.394Z,90.99
2017-04-13T06:02:04.854Z,90.52
2017-04-13T06:02:30.314Z,90.23
2017-04-13T06:02:55.815Z,90.8
2017-04-13T06:03:21.294Z,90.14
2017-04-13T06:03:46.767Z,90.37
2017-04-13T06:04:12.243Z,90.56
2017-04-13T06:04:37.741Z,90.7
2017-04-13T06:05:03.202Z,90.84
2017-04-13T06:05:28.648Z,90.66
2017-04-13T06:05:54.110Z,91.22
2017-04-13T06:06:19.599Z,91.42
2017-04-13T06:06:45.083Z,91.32
2017-04-13T06:07:10.601Z,92.08
2017-04-13T06:07:36.066Z,92.08
2017-04-13T06:08:01.536Z,91.99
2017-04-13T06:08:27.010Z,91.89
2017-04-13T06:08:52.469Z,91.42
2017-04-13T06:09:17.971Z,91.32
2017-04-13T06:09:43.481Z,91.32
2017-04-13T06:10:08.932Z,90.84
2017-04-13T06:10:34.409Z,91.13
2017-04-13T06:10:59.862Z,91.13
2017-04-13T06:11:25.356Z,90.84
2017-04-13T06:11:50.814Z,90.75
2017-04-13T06:12:16.250Z,90.56
2017-04-13T06:12:41.727Z,90.37
2017-04-13T06:13:07.208Z,90.56
2017-04-13T06:13:32.699Z,90.84
2017-04-13T06:13:58.171Z,91.03
2017-04-13T06:14:23.638Z,90.84
2017-04-13T06:14:49.138Z,89.99
2017-04-13T06:15:14.601Z,89.7
2017-04-13T06:15:40.088Z,90.28
2017-04-13T06:16:05.536Z,90.18
2017-04-13T06:16:31.000Z,90.66
2017-04-13T06:16:56.461Z,90.28
2017-04-13T06:17:21.960Z,89.99
2017-04-13T06:17:47.457Z,89.8
2017-04-13T06:18:12.940Z,89.8
2017-04-13T06:18:38.413Z,89.99
2017-04-13T06:19:03.950Z,90.18
2017-04-13T06:19:29.397Z,90.66
2017-04-13T06:19:54.935Z,91.03
2017-04-13T06:20:20.363Z,90.94
2017-04-13T06:20:45.816Z,90.84
2017-04-13T06:21:11.285Z,90.75
2017-04-13T06:21:36.747Z,90.47
2017-04-13T06:22:02.219Z,89.99
2017-04-13T06:22:27.681Z,90.28
2017-04-13T06:22:53.162Z,90.66
2017-04-13T06:23:18.684Z,90.84
2017-04-13T06:23:44.100Z,91.03
2017-04-13T06:24:09.592Z,90.94
2017-04-13T06:24:35.083Z,90.37
2017-04-13T06:25:00.563Z,89.8
2017-04-13T06:25:26.055Z,89.42
2017-04-13T06:25:51.535Z,89.23
2017-04-13T06:26:17.078Z,89.23
2017-04-13T06:26:42.518Z,89.04
2017-04-13T06:27:08.025Z,88.56
2017-04-13T06:27:33.472Z,89.14
2017-04-13T06:27:58.979Z,88.94
2017-04-13T06:28:24.471Z,89.23
2017-04-13T06:28:49.956Z,89.42
2017-04-13T06:29:15.426Z,89.7
2017-04-13T06:29:40.919Z,90.37
2017-04-13T06:30:06.390Z,89.99
2017-04-13T06:30:31.863Z,90.28
2017-04-13T06:30:57.368Z,90.94
2017-04-13T06:31:22.813Z,89.8
2017-04-13T06:31:48.297Z,88.37
2017-04-13T06:32:13.765Z,88.56
2017-04-13T06:32:39.298Z,90.08
2017-04-13T06:33:04.734Z,89.61
2017-04-13T06:33:30.184Z,89.04
2017-04-13T06:33:55.662Z,89.04
2017-04-13T06:34:21.124Z,89.32
2017-04-13T06:34:46.599Z,89.42
2017-04-13T06:35:12.050Z,88.94
2017-04-13T06:35:37.517Z,89.7
2017-04-13T06:36:02.989Z,89.89
2017-04-13T06:36:28.488Z,89.7
2017-04-13T06:36:53.942Z,89.14
2017-04-13T06:37:19.448Z,89.61
2017-04-13T06:37:44.953Z,89.23
2017-04-13T06:38:10.433Z,89.04
2017-04-13T06:38:35.879Z,88.94
2017-04-13T06:39:01.352Z,89.61
2017-04-13T06:39:26.826Z,89.14
2017-04-13T06:39:52.316Z,88.85
2017-04-13T06:40:17.828Z,87.61
2017-04-13T06:40:43.261Z,87.42
2017-04-13T06:41:08.734Z,87.42
2017-04-13T06:41:34.197Z,87.71
2017-04-13T06:41:59.728Z,88.18
2017-04-13T06:42:25.201Z,87.99
2017-04-13T06:42:50.684Z,87.9
2017-04-13T06:43:16.140Z,87.99
2017-04-13T06:43:41.612Z,87.9
2017-04-13T06:44:07.104Z,88.18
2017-04-13T06:44:32.575Z,88.46
2017-04-13T06:44:58.020Z,89.23
2017-04-13T06:45:23.503Z,89.7
2017-04-13T06:45:48.972Z,90.08
2017-04-13T06:46:14.432Z,89.8
2017-04-13T06:46:39.920Z,89.8
2017-04-13T06:47:05.370Z,88.37
2017-04-13T06:47:30.859Z,87.71
2017-04-13T06:47:56.296Z,87.23
2017-04-13T06:48:21.783Z,86.66
2017-04-13T06:48:47.250Z,87.71
2017-04-13T06:49:12.722Z,87.32
2017-04-13T06:49:38.190Z,87.52
2017-04-13T06:50:03.650Z,86.94
2017-04-13T06:50:29.114Z,87.04
2017-04-13T06:50:54.578Z,88.37
2017-04-13T06:51:20.071Z,87.9
2017-04-13T06:51:45.521Z,87.61
2017-04-13T06:52:11.028Z,87.42
2017-04-13T06:52:36.480Z,87.42
2017-04-13T06:53:01.962Z,87.42
2017-04-13T06:53:27.427Z,88.37
2017-04-13T06:53:52.879Z,88.66
2017-04-13T06:54:18.370Z,88.66
2017-04-13T06:54:43.835Z,87.52
2017-04-13T06:55:09.333Z,87.23
2017-04-13T06:55:34.771Z,87.71
2017-04-13T06:56:00.235Z,88.09
2017-04-13T06:56:25.707Z,88.46
2017-04-13T06:56:51.181Z,88.85
2017-04-13T06:57:16.634Z,88.75
2017-04-13T06:57:42.093Z,88.85
2017-04-13T06:58:07.615Z,89.04
2017-04-13T06:58:33.069Z,89.99
2017-04-13T06:58:58.551Z,89.04
2017-04-13T06:59:24.042Z,87.61
2017-04-13T06:59:49.505Z,87.61
2017-04-13T07:00:14.996Z,87.71
2017-04-13T07:00:40.445Z,87.52
2017-04-13T07:01:05.934Z,87.99
2017-04-13T07:01:31.389Z,87.04
2017-04-13T07:01:56.854Z,87.42
2017-04-13T07:02:22.341Z,86.47
2017-04-13T07:02:47.826Z,87.13
2017-04-13T07:03:13.275Z,87.71
2017-04-13T07:03:38.730Z,87.52
2017-04-13T07:04:04.197Z,88.28
2017-04-13T07:04:29.656Z,88.46
2017-04-13T07:04:55.154Z,88.13
2017-04-13T07:05:20.625Z,87.94
2017-04-13T07:05:46.043Z,89.04
2017-04-13T07:06:11.498Z,88.7
2017-04-13T07:06:36.988Z,87.94
2017-04-13T07:07:02.448Z,87.56
2017-04-13T07:07:27.931Z,87.94
2017-04-13T07:07:53.421Z,87.46
2017-04-13T07:08:18.887Z,86.99
2017-04-13T07:08:44.355Z,87.13
2017-04-13T07:09:09.816Z,86.94
2017-04-13T07:09:35.348Z,86.32
2017-04-13T07:10:00.783Z,86.57
2017-04-13T07:10:26.251Z,86.38
2017-04-13T07:10:51.750Z,87.23
2017-04-13T07:11:17.210Z,86.94
2017-04-13T07:11:42.690Z,86.38
2017-04-13T07:12:08.138Z,85.99
2017-04-13T07:12:33.586Z,86.18
2017-04-13T07:12:59.071Z,86.66
2017-04-13T07:13:24.552Z,87.23
2017-04-13T07:13:50.035Z,87.23
2017-04-13T07:14:15.495Z,87.13
2017-04-13T07:14:40.943Z,86.57
2017-04-13T07:15:06.419Z,86.28
2017-04-13T07:15:31.889Z,87.04
2017-04-13T07:15:57.382Z,86.28
2017-04-13T07:16:22.853Z,86.57
2017-04-13T07:16:48.298Z,86.38
2017-04-13T07:17:13.770Z,86.28
2017-04-13T07:17:39.266Z,87.52
2017-04-13T07:18:04.718Z,86.94
2017-04-13T07:18:30.158Z,87.56
2017-04-13T07:18:55.683Z,88.23
2017-04-13T07:19:21.126Z,87.61
2017-04-13T07:19:46.570Z,87.37
2017-04-13T07:20:12.056Z,86.51
2017-04-13T07:20:37.543Z,86.18
2017-04-13T07:21:03.032Z,86.42
2017-04-13T07:21:28.485Z,87.71
2017-04-13T07:21:53.939Z,88.51
2017-04-13T07:22:19.422Z,87.27
2017-04-13T07:22:44.888Z,86.9
2017-04-13T07:23:10.376Z,86.42
2017-04-13T07:23:35.836Z,86.61
2017-04-13T07:24:01.335Z,86.13
2017-04-13T07:24:26.856Z,86.51
2017-04-13T07:24:52.315Z,86.7
2017-04-13T07:25:17.817Z,86.99
2017-04-13T07:25:43.266Z,86.9
2017-04-13T07:26:08.734Z,86.42
2017-04-13T07:26:34.272Z,86.04
2017-04-13T07:26:59.710Z,86.04
2017-04-13T07:27:25.191Z,86.51
2017-04-13T07:27:50.624Z,87.46
2017-04-13T07:28:16.100Z,87.75
2017-04-13T07:28:41.573Z,86.7
2017-04-13T07:29:07.029Z,87.56
2017-04-13T07:29:32.493Z,87.27
2017-04-13T07:29:57.966Z,87.08
2017-04-13T07:30:23.479Z,86.8
2017-04-13T07:30:48.908Z,87.27
2017-04-13T07:31:14.375Z,86.99
2017-04-13T07:31:39.845Z,87.08
2017-04-13T07:32:05.322Z,87.37
2017-04-13T07:32:30.799Z,85.94
2017-04-13T07:32:56.277Z,85.85
2017-04-13T07:33:21.721Z,86.04
2017-04-13T07:33:47.206Z,86.7
2017-04-13T07:34:12.672Z,87.27
2017-04-13T07:34:38.145Z,87.46
2017-04-13T07:35:03.641Z,86.9
2017-04-13T07:35:29.062Z,87.56
2017-04-13T07:35:54.532Z,88.51
2017-04-13T07:36:20.011Z,87.75
2017-04-13T07:36:45.495Z,87.18
2017-04-13T07:37:10.972Z,86.9
2017-04-13T07:37:36.455Z,86.8
2017-04-13T07:38:01.947Z,85.85
2017-04-13T07:38:27.435Z,85.94
2017-04-13T07:38:52.881Z,86.9
2017-04-13T07:39:18.386Z,86.38
2017-04-13T07:39:43.853Z,86.51
2017-04-13T07:40:09.357Z,87.46
2017-04-13T07:40:34.832Z,87.56
2017-04-13T07:41:00.314Z,89.08
2017-04-13T07:41:25.775Z,89.47
2017-04-13T07:41:51.251Z,88.79
2017-04-13T07:42:16.741Z,87.37
2017-04-13T07:42:42.200Z,86.7
2017-04-13T07:43:07.676Z,86.61
2017-04-13T07:43:33.134Z,86.99
2017-04-13T07:43:58.600Z,86.9
2017-04-13T07:44:24.054Z,87.46
2017-04-13T07:44:49.545Z,87.56
2017-04-13T07:45:14.990Z,87.37
2017-04-13T07:45:40.470Z,88.7
2017-04-13T07:46:05.929Z,89.18
2017-04-13T07:46:31.426Z,88.79
2017-04-13T07:46:56.898Z,89.37
2017-04-13T07:47:22.386Z,88.7
2017-04-13T07:47:47.830Z,88.23
2017-04-13T07:48:13.331Z,87.46
2017-04-13T07:48:38.806Z,88.04
2017-04-13T07:49:04.287Z,88.13
2017-04-13T07:49:29.774Z,88.23
2017-04-13T07:49:55.219Z,88.23
2017-04-13T07:50:20.696Z,88.13
2017-04-13T07:50:46.183Z,87.46
2017-04-13T07:51:11.686Z,86.42
2017-04-13T07:51:37.152Z,85.28
2017-04-13T07:52:02.644Z,86.13
2017-04-13T07:52:28.102Z,87.08
2017-04-13T07:52:53.586Z,86.61
2017-04-13T07:53:19.018Z,86.22
2017-04-13T07:53:44.467Z,86.42
2017-04-13T07:54:09.952Z,85.08
2017-04-13T07:54:35.469Z,86.22
2017-04-13T07:55:00.905Z,85.94
2017-04-13T07:55:26.361Z,86.22
2017-04-13T07:55:51.863Z,85.85
2017-04-13T07:56:17.346Z,85.08
2017-04-13T07:56:42.800Z,84.61
2017-04-13T07:57:08.293Z,84.8
2017-04-13T07:57:33.761Z,84.99
2017-04-13T07:57:59.220Z,85.18
2017-04-13T07:58:24.710Z,84.33
2017-04-13T07:58:50.160Z,84.89
2017-04-13T07:59:15.646Z,84.61
2017-04-13T07:59:41.112Z,84.99
2017-04-13T08:00:06.578Z,85.85
2017-04-13T08:00:32.063Z,84.7
2017-04-13T08:00:57.524Z,84.61
2017-04-13T08:01:22.982Z,84.7
2017-04-13T08:01:48.465Z,86.13
2017-04-13T08:02:13.937Z,86.61
2017-04-13T08:02:39.408Z,87.18
2017-04-13T08:03:04.860Z,87.27
2017-04-13T08:03:30.325Z,86.61
2017-04-13T08:03:55.829Z,85.75
2017-04-13T08:04:21.314Z,85.47
2017-04-13T08:04:46.785Z,84.7
2017-04-13T08:05:12.295Z,86.7
2017-04-13T08:05:37.771Z,87.27
2017-04-13T08:06:03.213Z,87.46
2017-04-13T08:06:28.694Z,86.42
2017-04-13T08:06:54.155Z,86.61
2017-04-13T08:07:19.641Z,86.04
2017-04-13T08:07:45.100Z,85.08
2017-04-13T08:08:10.587Z,84.7
2017-04-13T08:08:36.062Z,84.52
2017-04-13T08:09:01.533Z,84.61
2017-04-13T08:09:27.004Z,83.56
2017-04-13T08:09:52.532Z,83.85
2017-04-13T08:10:18.055Z,84.89
2017-04-13T08:10:43.541Z,86.22
2017-04-13T08:11:08.999Z,85.94
2017-04-13T08:11:34.455Z,85.08
2017-04-13T08:11:59.930Z,84.89
2017-04-13T08:12:25.399Z,84.89
2017-04-13T08:12:50.888Z,86.61
2017-04-13T08:13:16.350Z,86.22
2017-04-13T08:13:41.834Z,86.9
2017-04-13T08:14:07.334Z,87.27
2017-04-13T08:14:32.792Z,85.08
2017-04-13T08:14:58.245Z,85.94
2017-04-13T08:15:23.745Z,84.04
2017-04-13T08:15:49.234Z,84.7
2017-04-13T08:16:14.733Z,84.99
2017-04-13T08:16:40.191Z,84.99
2017-04-13T08:17:05.672Z,84.8
2017-04-13T08:17:31.133Z,84.04
2017-04-13T08:17:56.600Z,83.47
2017-04-13T08:18:22.082Z,83.75
2017-04-13T08:18:47.567Z,83.94
2017-04-13T08:19:13.008Z,84.33
2017-04-13T08:19:38.460Z,84.99
2017-04-13T08:20:03.972Z,84.23
2017-04-13T08:20:29.459Z,84.52
2017-04-13T08:20:54.897Z,85.56
2017-04-13T08:21:20.363Z,86.51
2017-04-13T08:21:45.849Z,86.42
2017-04-13T08:22:11.288Z,86.51
2017-04-13T08:22:36.800Z,86.8
2017-04-13T08:23:02.305Z,86.61
2017-04-13T08:23:27.774Z,84.89
2017-04-13T08:23:53.252Z,84.23
2017-04-13T08:24:18.742Z,84.7
2017-04-13T08:24:44.230Z,83.47
2017-04-13T08:25:09.657Z,83.85
2017-04-13T08:25:35.104Z,82.61
2017-04-13T08:26:00.571Z,81.47
2017-04-13T08:26:26.060Z,81.47
2017-04-13T08:26:51.526Z,81.66
2017-04-13T08:27:17.020Z,81.66
2017-04-13T08:27:42.488Z,81.47
2017-04-13T08:28:07.957Z,82.8
2017-04-13T08:28:33.401Z,83.65
2017-04-13T08:28:58.908Z,82.99
2017-04-13T08:29:24.372Z,84.42
2017-04-13T08:29:49.837Z,85.75
2017-04-13T08:30:15.315Z,85.66
2017-04-13T08:30:40.787Z,83.47
2017-04-13T08:31:06.274Z,82.61
2017-04-13T08:31:31.736Z,82.23
2017-04-13T08:31:57.252Z,82.51
2017-04-13T08:32:22.742Z,83.32
2017-04-13T08:32:48.183Z,83.09
2017-04-13T08:33:13.729Z,82.42
2017-04-13T08:33:39.243Z,81.95
2017-04-13T08:34:04.718Z,82.8
2017-04-13T08:34:30.175Z,83.09
2017-04-13T08:34:55.663Z,82.42
2017-04-13T08:35:21.128Z,81.95
2017-04-13T08:35:47.194Z,81.47
2017-04-13T08:36:12.613Z,82.61
2017-04-13T08:36:38.100Z,84.7
2017-04-13T08:37:03.553Z,84.61
2017-04-13T08:37:29.045Z,83.89
2017-04-13T08:37:54.605Z,83.51
2017-04-13T08:38:20.088Z,83.37
2017-04-13T08:38:45.560Z,83.41
2017-04-13T08:39:11.010Z,83.41
2017-04-13T08:39:36.508Z,81.98
2017-04-13T08:40:01.979Z,81.98
2017-04-13T08:40:27.495Z,81.32
2017-04-13T08:40:52.998Z,82.37
2017-04-13T08:41:18.448Z,82.27
2017-04-13T08:41:43.913Z,81.51
2017-04-13T08:42:09.390Z,82.46
2017-04-13T08:42:34.844Z,81.6
2017-04-13T08:43:00.327Z,81.51
2017-04-13T08:43:25.814Z,80.84
2017-04-13T08:43:51.271Z,80.65
2017-04-13T08:44:16.747Z,80.75
2017-04-13T08:44:42.204Z,80.94
2017-04-13T08:45:07.702Z,82.65
2017-04-13T08:45:33.140Z,83.03
2017-04-13T08:45:58.668Z,81.89
2017-04-13T08:46:24.126Z,82.46
2017-04-13T08:46:49.617Z,81.7
2017-04-13T08:47:15.100Z,82.75
2017-04-13T08:47:40.551Z,83.32
2017-04-13T08:48:06.055Z,82.93
2017-04-13T08:48:31.554Z,81.51
2017-04-13T08:48:57.013Z,81.13
2017-04-13T08:49:22.505Z,80.27
2017-04-13T08:49:47.983Z,80.84
2017-04-13T08:50:13.464Z,80.84
2017-04-13T08:50:39.023Z,79.32
2017-04-13T08:51:04.465Z,80.18
2017-04-13T08:51:29.963Z,79.51
2017-04-13T08:51:55.465Z,79.22
2017-04-13T08:52:20.929Z,78.27
2017-04-13T08:52:46.402Z,77.42
2017-04-13T08:53:11.873Z,78.37
2017-04-13T08:53:37.371Z,77.89
2017-04-13T08:54:02.852Z,77.89
2017-04-13T08:54:28.327Z,78.46
2017-04-13T08:54:53.813Z,79.22
2017-04-13T08:55:19.280Z,81.79
2017-04-13T08:55:44.777Z,82.65
2017-04-13T08:56:10.221Z,81.51
2017-04-13T08:56:35.711Z,80.94
2017-04-13T08:57:01.185Z,82.75
2017-04-13T08:57:26.658Z,81.03
2017-04-13T08:57:52.109Z,79.22
2017-04-13T08:58:17.605Z,79.8
2017-04-13T08:58:43.110Z,79.22
2017-04-13T08:59:08.663Z,78.65
2017-04-13T08:59:34.130Z,78.56
2017-04-13T08:59:59.599Z,79.03
2017-04-13T09:00:25.072Z,78.75
2017-04-13T09:00:50.541Z,77.89
2017-04-13T09:01:15.982Z,77.7
2017-04-13T09:01:41.487Z,77.7
2017-04-13T09:02:06.938Z,77.13
2017-04-13T09:02:32.411Z,77.8
2017-04-13T09:02:57.893Z,79.32
2017-04-13T09:03:23.369Z,81.32
2017-04-13T09:03:48.821Z,82.37
2017-04-13T09:04:14.302Z,83.03
2017-04-13T09:04:39.789Z,81.98
2017-04-13T09:05:05.263Z,81.79
2017-04-13T09:05:30.761Z,81.6
2017-04-13T09:05:56.209Z,82.75
2017-04-13T09:06:21.692Z,82.84
2017-04-13T09:06:47.180Z,83.32
2017-04-13T09:07:12.614Z,83.03
2017-04-13T09:07:38.070Z,81.17
2017-04-13T09:08:03.545Z,81.32
2017-04-13T09:08:28.999Z,82.79
2017-04-13T09:08:54.455Z,81.65
2017-04-13T09:09:19.994Z,78.59
2017-04-13T09:09:45.428Z,78.22
2017-04-13T09:10:10.951Z,78.59
2017-04-13T09:10:36.377Z,77.83
2017-04-13T09:11:01.854Z,79.27
2017-04-13T09:11:27.322Z,77.93
2017-04-13T09:11:52.844Z,77.07
2017-04-13T09:12:18.327Z,75.64
2017-04-13T09:12:43.784Z,77.17
2017-04-13T09:13:09.269Z,77.64
2017-04-13T09:13:34.739Z,77.55
2017-04-13T09:14:00.247Z,78.22
2017-04-13T09:14:25.745Z,76.21
2017-04-13T09:14:51.192Z,76.31
2017-04-13T09:15:16.647Z,76.59
2017-04-13T09:15:42.125Z,77.07
2017-04-13T09:16:07.610Z,76.88
2017-04-13T09:16:33.079Z,77.55
2017-04-13T09:16:58.561Z,77.74
2017-04-13T09:17:24.027Z,77.17
2017-04-13T09:17:49.513Z,78.69
2017-04-13T09:18:14.983Z,80.41
2017-04-13T09:18:40.490Z,81.36
2017-04-13T09:19:05.980Z,80.6
2017-04-13T09:19:31.471Z,81.07
2017-04-13T09:19:57.067Z,78.41
2017-04-13T09:20:22.564Z,75.84
2017-04-13T09:20:48.046Z,75.36
2017-04-13T09:21:13.531Z,76.88
2017-04-13T09:21:38.980Z,78.08
2017-04-13T09:22:04.532Z,77.26
2017-04-13T09:22:30.004Z,76.31
2017-04-13T09:22:55.456Z,76.79
2017-04-13T09:23:20.942Z,78.69
2017-04-13T09:23:46.390Z,78.88
2017-04-13T09:24:11.872Z,77.36
2017-04-13T09:24:37.333Z,76.12
2017-04-13T09:25:02.825Z,78.31
2017-04-13T09:25:28.288Z,79.27
2017-04-13T09:25:53.755Z,77.45
2017-04-13T09:26:19.265Z,76.5
2017-04-13T09:26:44.736Z,78.22
2017-04-13T09:27:10.217Z,79.83
2017-04-13T09:27:35.699Z,79.07
2017-04-13T09:28:01.424Z,80.5
2017-04-13T09:28:26.910Z,77.74
2017-04-13T09:28:52.365Z,75.64
2017-04-13T09:29:17.889Z,75.07